« Back
NWS Peachtree City, Ga » Text Product » MCN Terminal Aerodrome Forecast


Printer-friendly Version
Current Version              Previous Versions:   1  2  3  4  5  6  7  8  9  

Terminal Aerodrome Forecast

185
FTUS42 KFFC 301131
TAFMCN
TAF
KMCN 301131Z 3012/0112 00000KT P6SM SCT070 BKN250
     FM301500 16006KT P6SM SCT040 BKN250
     FM301800 18008KT P6SM VCSH BKN050
     FM010000 17006KT P6SM SCT050 BKN250
     FM010900 23005KT 4SM BR BKN020=

USA.gov is the U.S. government's official web portal to all federal, state and local government web resources and services.